createdAt,value
2019-01-29T00:00:29.857Z,0
2019-01-29T00:01:30.188Z,0
2019-01-29T00:02:30.074Z,0
2019-01-29T00:03:29.950Z,0
2019-01-29T00:11:28.602Z,0.6
2019-01-29T00:12:28.514Z,0.6
2019-01-29T00:13:28.392Z,0.6
2019-01-29T00:14:28.285Z,0.5
2019-01-29T00:15:28.176Z,0.5
2019-01-29T00:16:31.904Z,0.5
2019-01-29T00:17:31.813Z,0.4
2019-01-29T00:18:31.690Z,0.3
2019-01-29T00:19:31.578Z,0.3
2019-01-29T00:20:32.484Z,0.3
2019-01-29T00:21:33.332Z,0.2
2019-01-29T00:22:34.240Z,0.2
2019-01-29T00:23:34.130Z,0.2
2019-01-29T00:24:34.023Z,0.1
2019-01-29T00:25:33.913Z,0.1
2019-01-29T00:26:33.843Z,0.1
2019-01-29T00:27:33.772Z,0.1
2019-01-29T00:28:36.815Z,0
2019-01-29T00:29:36.701Z,0
2019-01-29T00:30:36.595Z,0.1
2019-01-29T00:31:37.688Z,0
2019-01-29T00:32:37.611Z,0
2019-01-29T00:33:37.503Z,0
2019-01-29T00:34:37.610Z,0
2019-01-29T00:35:37.494Z,0
2019-01-29T00:36:37.391Z,0.1
2019-01-29T00:37:37.525Z,0
2019-01-29T00:38:37.439Z,0
2019-01-29T00:39:37.325Z,-0.1
2019-01-29T00:40:40.016Z,-0.1
2019-01-29T00:41:40.579Z,-0.1
2019-01-29T00:42:40.464Z,-0.2
2019-01-29T00:43:40.604Z,-0.2
2019-01-29T00:44:40.499Z,-0.1
2019-01-29T00:45:40.398Z,-0.1
2019-01-29T00:46:40.298Z,-0.1
2019-01-29T00:47:40.217Z,-0.1
2019-01-29T00:48:40.106Z,-0.1
2019-01-29T00:49:40.021Z,-0.2
2019-01-29T00:50:39.919Z,-0.2
2019-01-29T00:51:40.253Z,-0.1
2019-01-29T00:52:42.903Z,-0.2
2019-01-29T00:53:42.793Z,-0.1
2019-01-29T00:54:42.681Z,-0.1
2019-01-29T00:55:42.567Z,-0.1
2019-01-29T00:56:43.484Z,-0.1
2019-01-29T00:57:43.442Z,-0.1
2019-01-29T00:58:43.332Z,-0.1
2019-01-29T00:59:43.249Z,-0.1
2019-01-29T01:00:43.140Z,-0.2
2019-01-29T01:01:43.470Z,-0.2
2019-01-29T01:02:43.373Z,-0.2
2019-01-29T01:03:43.316Z,-0.3
2019-01-29T01:14:41.027Z,0.4
2019-01-29T01:19:39.907Z,0.6
2019-01-29T01:21:39.947Z,0.6
2019-01-29T01:22:39.834Z,0.6
2019-01-29T01:23:39.738Z,0.6
2019-01-29T01:24:39.629Z,0.5
2019-01-29T01:25:39.549Z,0.4
2019-01-29T01:26:39.433Z,0.3
2019-01-29T01:27:39.340Z,0.3
2019-01-29T01:28:39.279Z,0.2
2019-01-29T01:29:39.195Z,0.2
2019-01-29T01:30:39.395Z,0.2
2019-01-29T01:31:39.848Z,0.1
2019-01-29T01:32:39.729Z,0.1
2019-01-29T01:33:39.684Z,0
2019-01-29T01:34:42.269Z,-0.1
2019-01-29T01:35:42.169Z,0
2019-01-29T01:36:42.051Z,0
2019-01-29T01:37:41.956Z,-0.1
2019-01-29T01:38:41.895Z,-0.1
2019-01-29T01:39:41.782Z,-0.1
2019-01-29T01:40:41.694Z,-0.1
2019-01-29T01:41:42.009Z,-0.1
2019-01-29T01:42:41.895Z,-0.2
2019-01-29T01:43:41.781Z,-0.2
2019-01-29T01:44:41.667Z,-0.2
2019-01-29T01:45:41.575Z,-0.2
2019-01-29T01:46:41.451Z,-0.2
2019-01-29T01:47:41.366Z,-0.3
2019-01-29T01:48:41.241Z,-0.3
2019-01-29T01:49:41.201Z,-0.3
2019-01-29T01:50:41.087Z,-0.3
2019-01-29T01:51:41.399Z,-0.3
2019-01-29T01:52:41.363Z,-0.3
2019-01-29T01:53:41.239Z,-0.3
2019-01-29T01:54:41.113Z,-0.3
2019-01-29T01:55:41.007Z,-0.3
2019-01-29T01:56:40.889Z,-0.3
2019-01-29T01:57:40.802Z,-0.3
2019-01-29T01:58:40.687Z,-0.3
2019-01-29T01:59:40.579Z,-0.3
2019-01-29T02:00:40.470Z,-0.3
2019-01-29T02:01:40.804Z,-0.3
2019-01-29T02:02:40.711Z,-0.3
2019-01-29T02:03:40.609Z,-0.3
2019-01-29T02:04:40.475Z,-0.3
2019-01-29T02:05:40.379Z,-0.4
2019-01-29T02:06:40.255Z,-0.4
2019-01-29T02:07:40.144Z,-0.4
2019-01-29T02:08:40.033Z,-0.4
2019-01-29T02:09:39.910Z,-0.4
2019-01-29T02:10:39.804Z,-0.4
2019-01-29T02:11:40.117Z,-0.4
2019-01-29T02:12:40.016Z,-0.4
2019-01-29T02:13:39.927Z,-0.4
2019-01-29T02:14:39.830Z,-0.4
2019-01-29T02:15:39.723Z,-0.4
2019-01-29T02:16:39.622Z,-0.4
2019-01-29T02:17:39.516Z,-0.4
2019-01-29T02:18:39.398Z,-0.5
2019-01-29T02:19:39.292Z,-0.5
2019-01-29T02:20:39.276Z,-0.5
2019-01-29T02:21:39.671Z,-0.4
2019-01-29T02:22:39.581Z,-0.4
2019-01-29T02:23:39.459Z,-0.4
2019-01-29T02:31:37.897Z,0.2
2019-01-29T02:32:37.819Z,0.2
2019-01-29T02:33:37.709Z,0.2
2019-01-29T02:34:37.601Z,0.1
2019-01-29T02:35:37.481Z,0.1
2019-01-29T02:36:37.385Z,0.1
2019-01-29T02:37:37.294Z,0.1
2019-01-29T02:38:38.202Z,0
2019-01-29T02:39:38.101Z,0
2019-01-29T02:40:38.002Z,0
2019-01-29T02:41:38.317Z,0
2019-01-29T02:42:38.255Z,-0.1
2019-01-29T02:43:38.168Z,-0.1
2019-01-29T02:44:38.064Z,0
2019-01-29T02:45:37.954Z,-0.1
2019-01-29T02:46:37.842Z,-0.1
2019-01-29T02:47:37.744Z,-0.2
2019-01-29T02:48:37.683Z,-0.1
2019-01-29T02:49:37.575Z,-0.2
2019-01-29T02:50:37.446Z,-0.2
2019-01-29T02:51:37.738Z,-0.2
2019-01-29T02:52:37.627Z,-0.2
2019-01-29T02:53:37.555Z,-0.2
2019-01-29T03:01:36.008Z,0.2
2019-01-29T03:02:35.898Z,0.2
2019-01-29T03:03:35.796Z,0.2
2019-01-29T03:04:35.778Z,0.2
2019-01-29T03:05:35.693Z,0.2
2019-01-29T03:06:35.576Z,0.2
2019-01-29T03:07:35.464Z,0.1
2019-01-29T03:08:35.369Z,0.1
2019-01-29T03:09:35.263Z,0
2019-01-29T03:10:35.140Z,0
2019-01-29T03:11:35.452Z,0
2019-01-29T03:12:35.354Z,-0.1
2019-01-29T03:13:35.277Z,-0.1
2019-01-29T03:14:35.179Z,-0.1
2019-01-29T03:15:35.141Z,-0.1
2019-01-29T03:16:35.048Z,-0.1
2019-01-29T03:17:34.966Z,-0.1
2019-01-29T03:18:34.834Z,-0.2
2019-01-29T03:19:34.760Z,-0.2
2019-01-29T03:20:34.648Z,-0.2
2019-01-29T03:21:34.978Z,-0.2
2019-01-29T03:22:34.877Z,-0.3
2019-01-29T03:23:35.781Z,-0.3
2019-01-29T03:24:35.689Z,-0.3
2019-01-29T03:25:35.616Z,-0.3
2019-01-29T03:26:35.497Z,-0.3
2019-01-29T03:27:35.373Z,-0.3
2019-01-29T03:28:35.250Z,-0.3
2019-01-29T03:29:35.150Z,-0.3
2019-01-29T03:30:35.090Z,-0.3
2019-01-29T03:31:35.497Z,-0.3
2019-01-29T03:32:35.416Z,-0.3
2019-01-29T03:33:35.363Z,-0.3
2019-01-29T03:34:35.249Z,-0.3
2019-01-29T03:35:35.149Z,-0.3
2019-01-29T03:36:35.057Z,-0.3
2019-01-29T03:37:34.950Z,-0.3
2019-01-29T03:38:34.854Z,-0.3
2019-01-29T03:39:34.754Z,-0.4
2019-01-29T03:40:34.632Z,-0.3
2019-01-29T03:41:35.044Z,-0.3
2019-01-29T03:42:34.928Z,-0.3
2019-01-29T03:43:34.815Z,-0.3
2019-01-29T03:44:34.701Z,-0.3
2019-01-29T03:45:34.602Z,-0.4
2019-01-29T03:46:34.522Z,-0.3
2019-01-29T03:47:34.415Z,-0.4
2019-01-29T03:48:34.330Z,-0.3
2019-01-29T03:49:34.231Z,-0.3
2019-01-29T03:50:34.120Z,-0.4
2019-01-29T03:51:34.556Z,-0.4
2019-01-29T03:52:34.482Z,-0.4
2019-01-29T03:53:38.854Z,-0.4
2019-01-29T03:54:38.770Z,-0.2
2019-01-29T04:07:36.082Z,0.5
2019-01-29T04:08:35.984Z,0.5
2019-01-29T04:11:35.774Z,0.6
2019-01-29T04:12:35.648Z,0.6
2019-01-29T04:13:35.547Z,0.4
2019-01-29T04:14:35.442Z,0.4
2019-01-29T04:15:35.345Z,0.4
2019-01-29T04:16:35.240Z,0.4
2019-01-29T04:17:35.135Z,0.3
2019-01-29T04:18:35.037Z,0.2
2019-01-29T04:19:34.948Z,0.2
2019-01-29T04:20:34.859Z,0.2
2019-01-29T04:21:35.186Z,0.2
2019-01-29T04:22:35.078Z,0.1
2019-01-29T04:23:34.969Z,0.1
2019-01-29T04:24:34.871Z,0.1
2019-01-29T04:25:34.858Z,0.1
2019-01-29T04:26:34.762Z,0
2019-01-29T04:27:34.648Z,0
2019-01-29T04:28:34.546Z,0
2019-01-29T04:29:34.481Z,0
2019-01-29T04:30:34.374Z,-0.1
2019-01-29T04:31:34.921Z,-0.1
2019-01-29T04:32:36.837Z,-0.2
2019-01-29T04:33:36.704Z,-0.2
2019-01-29T04:34:36.605Z,-0.2
2019-01-29T04:35:36.486Z,-0.2
2019-01-29T04:36:36.385Z,-0.2
2019-01-29T04:37:36.264Z,-0.2
2019-01-29T04:38:36.145Z,-0.2
2019-01-29T04:39:36.018Z,-0.3
2019-01-29T04:40:35.915Z,-0.3
2019-01-29T04:41:36.249Z,-0.3
2019-01-29T04:42:36.143Z,-0.3
2019-01-29T04:43:36.028Z,-0.3
2019-01-29T04:44:35.921Z,-0.3
2019-01-29T04:45:35.832Z,-0.3
2019-01-29T04:46:35.731Z,-0.4
2019-01-29T04:47:35.621Z,-0.5
2019-01-29T04:48:35.516Z,-0.7
2019-01-29T04:49:35.414Z,-0.8
2019-01-29T04:50:35.436Z,-0.7
2019-01-29T04:51:35.745Z,-0.7
2019-01-29T04:52:35.634Z,-0.6
2019-01-29T04:53:35.519Z,-0.5
2019-01-29T04:54:35.384Z,-0.5
2019-01-29T04:55:35.268Z,-0.5
2019-01-29T04:56:35.206Z,-0.5
2019-01-29T04:57:35.112Z,-0.5
2019-01-29T04:58:34.997Z,-0.6
2019-01-29T04:59:34.878Z,-0.6
2019-01-29T05:00:34.757Z,-0.6
2019-01-29T05:01:35.144Z,-0.6
2019-01-29T05:02:35.033Z,-0.6
2019-01-29T05:03:34.908Z,-0.5
2019-01-29T05:04:34.788Z,-0.6
2019-01-29T05:05:34.670Z,-0.5
2019-01-29T05:06:34.585Z,-0.5
2019-01-29T05:07:34.474Z,-0.6
2019-01-29T05:08:34.391Z,-0.5
2019-01-29T05:09:34.297Z,-0.5
2019-01-29T05:10:34.182Z,-0.6
2019-01-29T05:11:34.532Z,-0.6
2019-01-29T05:12:34.409Z,-0.6
2019-01-29T05:13:34.295Z,-0.6
2019-01-29T05:14:34.181Z,-0.5
2019-01-29T05:15:34.054Z,-0.6
2019-01-29T05:16:33.982Z,-0.6
2019-01-29T05:17:33.869Z,-0.5
2019-01-29T05:18:33.756Z,-0.6
2019-01-29T05:19:33.645Z,-0.6
2019-01-29T05:20:33.519Z,-0.6
2019-01-29T05:21:33.827Z,-0.6
2019-01-29T05:22:33.734Z,-0.6
2019-01-29T05:31:34.055Z,0
2019-01-29T05:32:33.970Z,-0.1
2019-01-29T05:33:33.896Z,-0.1
2019-01-29T05:34:33.796Z,-0.1
2019-01-29T05:35:33.694Z,-0.2
2019-01-29T05:36:33.611Z,-0.2
2019-01-29T05:37:33.520Z,-0.2
2019-01-29T05:38:33.409Z,-0.2
2019-01-29T05:39:33.308Z,-0.3
2019-01-29T05:40:33.192Z,-0.3
2019-01-29T05:41:33.579Z,-0.3
2019-01-29T05:42:33.477Z,-0.3
2019-01-29T05:43:33.386Z,-0.3
2019-01-29T05:44:33.261Z,-0.3
2019-01-29T05:45:33.152Z,-0.3
2019-01-29T05:46:33.045Z,-0.3
2019-01-29T05:47:32.928Z,-0.3
2019-01-29T05:48:32.809Z,-0.3
2019-01-29T05:49:32.722Z,-0.4
2019-01-29T05:50:32.613Z,-0.4
2019-01-29T05:51:32.977Z,-0.5
2019-01-29T05:52:32.887Z,-0.5
2019-01-29T05:53:32.780Z,-0.5
2019-01-29T05:54:32.711Z,-0.6
2019-01-29T05:55:32.634Z,-0.6
2019-01-29T05:56:32.515Z,-0.6
2019-01-29T05:57:32.399Z,-0.6
2019-01-29T05:58:32.293Z,-0.6
2019-01-29T05:59:32.201Z,-0.5
2019-01-29T06:00:32.092Z,-0.5
2019-01-29T06:01:32.402Z,-0.5
2019-01-29T06:02:32.301Z,-0.5
2019-01-29T06:03:32.195Z,-0.5
2019-01-29T06:04:32.097Z,-0.5
2019-01-29T06:05:31.991Z,-0.5
2019-01-29T06:06:31.887Z,-0.5
2019-01-29T06:07:31.846Z,-0.6
2019-01-29T06:08:31.736Z,-0.5
2019-01-29T06:09:31.656Z,-0.6
2019-01-29T06:10:31.585Z,-0.6
2019-01-29T06:11:31.937Z,-0.6
2019-01-29T06:12:31.838Z,-0.6
2019-01-29T06:13:31.737Z,-0.6
2019-01-29T06:14:31.649Z,-0.6
2019-01-29T06:15:31.554Z,-0.6
2019-01-29T06:16:31.426Z,-0.6
2019-01-29T06:17:31.305Z,-0.6
2019-01-29T06:18:31.191Z,-0.6
2019-01-29T06:19:31.100Z,-0.7
2019-01-29T06:20:30.985Z,-0.7
2019-01-29T06:21:31.324Z,-0.6
2019-01-29T06:22:31.232Z,-0.7
2019-01-29T06:23:31.142Z,-0.6
2019-01-29T06:24:31.116Z,-0.6
2019-01-29T06:25:31.031Z,-0.6
2019-01-29T06:26:30.963Z,-0.6
2019-01-29T06:27:30.851Z,-0.6
2019-01-29T06:28:30.736Z,-0.6
2019-01-29T06:29:30.619Z,-0.7
2019-01-29T06:30:30.529Z,-0.6
2019-01-29T06:31:30.839Z,-0.6
2019-01-29T06:32:30.732Z,-0.6
2019-01-29T06:35:30.069Z,-0.4
2019-01-29T06:41:29.137Z,0.1
2019-01-29T06:42:29.035Z,0.1
2019-01-29T06:43:28.929Z,0
2019-01-29T06:44:28.814Z,-0.1
2019-01-29T06:45:28.702Z,-0.1
2019-01-29T06:46:28.831Z,-0.1
2019-01-29T06:47:28.745Z,-0.2
2019-01-29T06:48:28.648Z,-0.2
2019-01-29T06:49:28.546Z,-0.3
2019-01-29T06:50:28.457Z,-0.3
2019-01-29T06:51:28.758Z,-0.3
2019-01-29T06:52:28.665Z,-0.3
2019-01-29T06:53:28.583Z,-0.4
2019-01-29T06:54:34.890Z,-0.3
2019-01-29T07:01:33.667Z,0.2
2019-01-29T07:02:33.547Z,0.1
2019-01-29T07:03:33.439Z,0.1
2019-01-29T07:04:33.356Z,0.1
2019-01-29T07:05:33.286Z,0.1
2019-01-29T07:06:33.237Z,0
2019-01-29T07:07:33.160Z,0
2019-01-29T07:08:33.039Z,0
2019-01-29T07:09:32.972Z,-0.1
2019-01-29T07:10:32.881Z,-0.1
2019-01-29T07:11:33.181Z,-0.1
2019-01-29T07:12:33.080Z,-0.2
2019-01-29T07:13:33.054Z,-0.2
2019-01-29T07:14:32.932Z,-0.3
2019-01-29T07:15:32.834Z,-0.3
2019-01-29T07:16:32.738Z,-0.3
2019-01-29T07:17:32.609Z,-0.3
2019-01-29T07:18:32.504Z,-0.3
2019-01-29T07:19:32.409Z,-0.3
2019-01-29T07:20:32.285Z,-0.3
2019-01-29T07:21:32.608Z,-0.3
2019-01-29T07:22:32.494Z,-0.4
2019-01-29T07:23:32.390Z,-0.4
2019-01-29T07:24:32.299Z,-0.4
2019-01-29T07:25:32.190Z,-0.4
2019-01-29T07:26:32.098Z,-0.4
2019-01-29T07:27:31.992Z,-0.5
2019-01-29T07:28:31.900Z,-0.4
2019-01-29T07:29:31.803Z,-0.5
2019-01-29T07:30:31.690Z,-0.4
2019-01-29T07:31:32.006Z,-0.4
2019-01-29T07:32:31.908Z,-0.5
2019-01-29T07:33:31.795Z,-0.5
2019-01-29T07:34:31.684Z,-0.4
2019-01-29T07:35:31.579Z,-0.5
2019-01-29T07:36:31.480Z,-0.4
2019-01-29T07:37:31.366Z,-0.4
2019-01-29T07:38:31.262Z,-0.4
2019-01-29T07:39:31.151Z,-0.4
2019-01-29T07:40:31.018Z,-0.4
2019-01-29T07:41:31.346Z,-0.5
2019-01-29T07:42:31.268Z,-0.4
2019-01-29T07:43:31.157Z,-0.4
2019-01-29T07:44:31.038Z,-0.4
2019-01-29T07:45:30.938Z,-0.4
2019-01-29T07:46:30.849Z,-0.4
2019-01-29T07:47:30.742Z,-0.4
2019-01-29T07:48:30.656Z,-0.5
2019-01-29T07:49:30.545Z,-0.5
2019-01-29T07:50:30.460Z,-0.5
2019-01-29T07:51:30.784Z,-0.5
2019-01-29T07:52:30.740Z,-0.5
2019-01-29T07:53:30.656Z,-0.5
2019-01-29T07:54:34.118Z,-0.5
2019-01-29T07:55:34.033Z,-0.5
2019-01-29T07:56:33.904Z,-0.5
2019-01-29T07:57:33.805Z,-0.5
2019-01-29T07:58:33.726Z,-0.4
2019-01-29T07:59:33.948Z,-0.5
2019-01-29T08:00:33.866Z,-0.5
2019-01-29T08:01:34.250Z,-0.5
2019-01-29T08:02:34.129Z,-0.5
2019-01-29T08:03:34.035Z,-0.5
2019-01-29T08:04:38.056Z,-0.4
2019-01-29T08:05:37.939Z,-0.4
2019-01-29T08:06:37.826Z,-0.4
2019-01-29T08:07:37.722Z,-0.4
2019-01-29T08:08:37.636Z,-0.3
2019-01-29T08:09:37.534Z,-0.3
2019-01-29T08:10:37.422Z,-0.3
2019-01-29T08:11:37.735Z,-0.3
2019-01-29T08:12:37.626Z,-0.2
2019-01-29T08:13:37.544Z,-0.2
2019-01-29T08:14:37.484Z,-0.1
2019-01-29T08:20:36.002Z,0.5
2019-01-29T08:21:36.345Z,0.5
2019-01-29T08:22:36.232Z,0.5
2019-01-29T08:23:36.148Z,0.5
2019-01-29T08:24:36.046Z,0.4
2019-01-29T08:25:35.960Z,0.5
2019-01-29T08:26:35.846Z,0.5
2019-01-29T08:27:35.732Z,0.4
2019-01-29T08:28:35.626Z,0.4
2019-01-29T08:29:35.536Z,0.4
2019-01-29T08:30:35.472Z,0.4
2019-01-29T08:31:35.804Z,0.3
2019-01-29T08:32:35.717Z,0.3
2019-01-29T08:33:35.603Z,0.3
2019-01-29T08:34:35.592Z,0.3
2019-01-29T08:35:35.516Z,0.3
2019-01-29T08:36:35.432Z,0.3
2019-01-29T08:37:35.336Z,0.3
2019-01-29T08:38:35.239Z,0.3
2019-01-29T08:39:35.132Z,0.3
2019-01-29T08:40:35.026Z,0.3
2019-01-29T08:41:35.412Z,0.3
2019-01-29T08:42:35.303Z,0.3
2019-01-29T08:43:35.202Z,0.3
2019-01-29T08:44:35.116Z,0.3
2019-01-29T08:45:35.028Z,0.4
2019-01-29T08:46:34.942Z,0.4
2019-01-29T08:47:34.817Z,0.2
2019-01-29T08:48:34.703Z,0
2019-01-29T08:49:34.604Z,-0.3
2019-01-29T08:50:34.504Z,-0.5
2019-01-29T08:51:34.888Z,-0.4
2019-01-29T08:52:34.807Z,-0.4
2019-01-29T08:53:34.696Z,-0.5
2019-01-29T08:54:34.587Z,-0.4
2019-01-29T08:55:34.486Z,-0.3
2019-01-29T08:56:34.390Z,-0.1
2019-01-29T08:57:34.285Z,0
2019-01-29T08:58:34.202Z,0
2019-01-29T08:59:34.094Z,0.1
2019-01-29T09:00:34.012Z,0.2
2019-01-29T09:01:34.400Z,0.2
2019-01-29T09:02:34.312Z,0.3
2019-01-29T09:03:34.202Z,0.3
2019-01-29T09:04:34.082Z,0.3
2019-01-29T09:05:33.980Z,0.4
2019-01-29T09:06:33.864Z,0.4
2019-01-29T09:07:33.755Z,0.5
2019-01-29T09:08:33.663Z,0.4
2019-01-29T09:09:33.549Z,0.5
2019-01-29T09:10:33.437Z,0.5
2019-01-29T09:11:33.756Z,0.5
2019-01-29T09:12:33.718Z,0.5
2019-01-29T09:13:33.690Z,0.6
2019-01-29T09:14:33.576Z,0.6
2019-01-29T09:15:33.448Z,0.6
2019-01-29T09:16:33.334Z,0.6
2019-01-29T09:17:33.222Z,0.6
2019-01-29T09:18:33.104Z,0.5
2019-01-29T09:19:33.023Z,0.6
2019-01-29T09:20:32.924Z,0.6
2019-01-29T09:21:33.256Z,0.6
2019-01-29T09:22:33.152Z,0.6
2019-01-29T09:23:33.260Z,0.6
2019-01-29T09:24:33.189Z,0.7
2019-01-29T09:25:33.088Z,0.8
2019-01-29T09:27:32.711Z,1
2019-01-29T09:29:32.332Z,1.2
2019-01-29T09:31:32.377Z,1.4
2019-01-29T09:32:32.269Z,1.4
2019-01-29T09:33:32.169Z,1.4
2019-01-29T09:34:32.071Z,1.4
2019-01-29T09:35:31.965Z,1.5
2019-01-29T09:36:33.852Z,1.4
2019-01-29T09:37:33.977Z,1.5
2019-01-29T09:38:33.888Z,1.4
2019-01-29T09:39:33.857Z,1.4
2019-01-29T09:40:33.825Z,1.4
2019-01-29T09:41:34.133Z,1.3
2019-01-29T09:42:34.049Z,1.3
2019-01-29T09:43:33.971Z,1.4
2019-01-29T09:44:33.872Z,1.4
2019-01-29T09:46:33.508Z,1.6
2019-01-29T09:47:33.409Z,1.6
2019-01-29T09:48:33.287Z,1.7
2019-01-29T09:49:33.173Z,1.7
2019-01-29T09:50:33.056Z,1.8
2019-01-29T09:51:33.383Z,1.8
2019-01-29T09:52:33.274Z,1.8
2019-01-29T09:53:33.176Z,1.9
2019-01-29T09:54:33.077Z,1.8
2019-01-29T09:55:32.957Z,1.9
2019-01-29T09:56:32.835Z,1.8
2019-01-29T09:57:32.747Z,1.7
2019-01-29T09:58:32.651Z,1.7
2019-01-29T09:59:32.565Z,1.7
2019-01-29T10:00:32.475Z,1.7
2019-01-29T10:01:33.018Z,1.7
2019-01-29T10:02:32.939Z,1.6
2019-01-29T10:03:32.903Z,1.6
2019-01-29T10:04:32.805Z,1.5
2019-01-29T10:05:32.697Z,1.5
2019-01-29T10:06:32.591Z,1.5
2019-01-29T10:07:32.500Z,1.5
2019-01-29T10:08:32.409Z,1.5
2019-01-29T10:09:32.310Z,1.5
2019-01-29T10:10:32.201Z,1.5
2019-01-29T10:11:32.513Z,1.5
2019-01-29T10:12:32.398Z,1.5
2019-01-29T10:13:32.317Z,1.5
2019-01-29T10:14:32.195Z,1.5
2019-01-29T10:15:32.087Z,1.6
2019-01-29T10:16:31.949Z,1.7
2019-01-29T10:17:31.845Z,1.7
2019-01-29T10:19:31.487Z,1.9
2019-01-29T10:20:31.392Z,1.9
2019-01-29T10:21:31.715Z,1.9
2019-01-29T10:22:31.602Z,1.9
2019-01-29T10:23:31.507Z,1.9
2019-01-29T10:24:31.397Z,1.9
2019-01-29T10:25:38.651Z,1.9
2019-01-29T10:26:38.563Z,1.9
2019-01-29T10:27:38.455Z,2
2019-01-29T10:28:38.361Z,2
2019-01-29T10:29:38.243Z,1.9
2019-01-29T10:30:38.177Z,2
2019-01-29T10:31:38.587Z,2
2019-01-29T10:32:38.499Z,2
2019-01-29T10:33:38.413Z,1.9
2019-01-29T10:34:38.347Z,1.9
2019-01-29T10:35:38.229Z,2
2019-01-29T10:36:38.135Z,2
2019-01-29T10:37:38.033Z,2
2019-01-29T10:38:37.915Z,2
2019-01-29T10:39:37.815Z,2
2019-01-29T10:40:37.704Z,2
2019-01-29T10:41:38.015Z,2
2019-01-29T10:42:37.890Z,2
2019-01-29T10:43:37.793Z,2
2019-01-29T10:44:37.680Z,2
2019-01-29T10:45:37.557Z,2
2019-01-29T10:46:37.467Z,2
2019-01-29T10:47:37.349Z,2
2019-01-29T10:48:37.321Z,2
2019-01-29T10:49:37.230Z,2.1
2019-01-29T10:50:37.127Z,2.1
2019-01-29T10:51:37.525Z,2.1
2019-01-29T10:52:37.454Z,2.2
2019-01-29T10:53:37.383Z,2.2
2019-01-29T10:54:37.271Z,2.3
2019-01-29T10:55:46.692Z,2.4
2019-01-29T10:57:47.355Z,2.6
2019-01-29T10:58:47.253Z,2.6
2019-01-29T10:59:47.180Z,2.7
2019-01-29T11:00:47.096Z,2.7
2019-01-29T11:01:47.415Z,2.8
2019-01-29T11:02:47.307Z,2.9
2019-01-29T11:03:47.219Z,2.9
2019-01-29T11:04:47.151Z,3
2019-01-29T11:05:47.081Z,3.1
2019-01-29T11:06:46.955Z,3.1
2019-01-29T11:07:46.837Z,3.1
2019-01-29T11:08:46.766Z,2.9
2019-01-29T11:09:48.740Z,2.8
2019-01-29T11:10:48.655Z,2.7
2019-01-29T11:11:48.969Z,2.7
2019-01-29T11:12:48.863Z,2.7
2019-01-29T11:13:49.017Z,2.7
2019-01-29T11:14:48.893Z,2.7
2019-01-29T11:15:48.780Z,2.8
2019-01-29T11:16:48.767Z,2.7
2019-01-29T11:17:48.725Z,2.7
2019-01-29T11:18:48.639Z,2.6
2019-01-29T11:19:48.551Z,2.6
2019-01-29T11:20:48.434Z,2.5
2019-01-29T11:21:48.771Z,2.5
2019-01-29T11:22:48.681Z,2.5
2019-01-29T11:23:48.605Z,2.4
2019-01-29T11:24:48.527Z,2.4
2019-01-29T11:25:56.682Z,2.4
2019-01-29T11:26:56.598Z,2.4
2019-01-29T11:27:56.495Z,2.5
2019-01-29T11:28:56.434Z,2.5
2019-01-29T11:29:56.352Z,2.5
2019-01-29T11:30:56.247Z,2.4
2019-01-29T11:31:56.617Z,2.4
2019-01-29T11:32:56.563Z,2.4
2019-01-29T11:33:56.479Z,2.5
2019-01-29T11:34:56.358Z,2.5
2019-01-29T11:35:56.251Z,2.5
2019-01-29T11:36:56.131Z,2.4
2019-01-29T11:37:56.007Z,2.5
2019-01-29T11:38:56.007Z,2.5
2019-01-29T11:39:55.905Z,2.5
2019-01-29T11:40:55.793Z,2.4
2019-01-29T11:41:56.130Z,2.4
2019-01-29T11:42:56.009Z,2.4
2019-01-29T11:43:55.939Z,2.4
2019-01-29T11:44:55.837Z,2.4
2019-01-29T11:45:55.719Z,2.4
2019-01-29T11:46:55.605Z,2.3
2019-01-29T11:47:55.502Z,2.3
2019-01-29T11:48:55.404Z,2.3
2019-01-29T11:49:55.313Z,2.3
2019-01-29T11:50:55.197Z,2.2
2019-01-29T11:51:55.505Z,2.1
2019-01-29T11:52:55.397Z,2.2
2019-01-29T11:53:55.317Z,2.1
2019-01-29T11:54:55.198Z,2.2
2019-01-29T11:55:55.080Z,2.1
2019-01-29T11:57:03.859Z,2.1
2019-01-29T11:58:03.739Z,2
2019-01-29T11:59:03.676Z,2.1
2019-01-29T12:00:03.579Z,2
2019-01-29T12:01:05.266Z,2
2019-01-29T12:02:05.826Z,2
2019-01-29T12:03:05.728Z,1.9
2019-01-29T12:04:05.636Z,2
2019-01-29T12:05:05.538Z,2
2019-01-29T12:06:05.432Z,1.9
2019-01-29T12:07:05.315Z,1.9
2019-01-29T12:08:05.206Z,1.9
2019-01-29T12:09:05.098Z,1.9
2019-01-29T12:10:05.011Z,1.9
2019-01-29T12:11:04.911Z,1.9
2019-01-29T12:12:05.236Z,1.9
2019-01-29T12:13:05.132Z,1.9
2019-01-29T12:14:05.026Z,1.9
2019-01-29T12:15:04.962Z,1.9
2019-01-29T12:16:04.864Z,2
2019-01-29T12:17:04.758Z,2
2019-01-29T12:18:04.690Z,2.1
2019-01-29T12:20:04.344Z,2.2
2019-01-29T12:21:04.247Z,2.4
2019-01-29T12:22:04.625Z,2.4
2019-01-29T12:23:04.530Z,2.4
2019-01-29T12:24:04.418Z,2.3
2019-01-29T12:25:04.322Z,2.3
2019-01-29T12:26:12.673Z,2.3
2019-01-29T12:27:13.387Z,2.2
2019-01-29T12:28:13.271Z,2.2
2019-01-29T12:29:13.155Z,2.1
2019-01-29T12:30:15.063Z,2.1
2019-01-29T12:31:14.980Z,2.1
2019-01-29T12:32:15.267Z,2
2019-01-29T12:33:15.156Z,2
2019-01-29T12:34:15.060Z,2
2019-01-29T12:35:14.964Z,1.9
2019-01-29T12:36:14.873Z,1.9
2019-01-29T12:37:14.773Z,1.9
2019-01-29T12:38:14.661Z,1.9
2019-01-29T12:39:14.554Z,1.9
2019-01-29T12:40:14.457Z,1.9
2019-01-29T12:41:14.338Z,1.9
2019-01-29T12:42:14.706Z,1.9
2019-01-29T12:43:14.614Z,1.9
2019-01-29T12:44:14.486Z,1.9
2019-01-29T12:45:14.421Z,1.8
2019-01-29T12:46:14.310Z,1.9
2019-01-29T12:47:14.446Z,1.9
2019-01-29T12:48:14.342Z,1.9
2019-01-29T12:49:14.239Z,1.8
2019-01-29T12:50:14.158Z,1.8
2019-01-29T12:51:14.048Z,1.8
2019-01-29T12:52:14.384Z,1.7
2019-01-29T12:53:14.328Z,1.8
2019-01-29T12:54:14.233Z,1.7
2019-01-29T12:55:14.130Z,1.7
2019-01-29T12:56:22.170Z,1.8
2019-01-29T12:57:22.044Z,1.8
2019-01-29T12:58:21.950Z,1.8
2019-01-29T12:59:21.854Z,1.8
2019-01-29T13:00:21.752Z,1.8
2019-01-29T13:01:21.651Z,1.8
2019-01-29T13:02:22.000Z,1.7
2019-01-29T13:03:21.881Z,1.7
2019-01-29T13:04:21.802Z,1.8
2019-01-29T13:05:21.701Z,1.8
2019-01-29T13:06:21.606Z,1.7
2019-01-29T13:07:21.495Z,1.7
2019-01-29T13:08:21.469Z,1.7
2019-01-29T13:09:21.386Z,1.7
2019-01-29T13:10:21.288Z,1.7
2019-01-29T13:11:21.206Z,1.7
2019-01-29T13:12:14.128Z,1.7
2019-01-29T13:13:14.460Z,1.8
2019-01-29T13:14:14.378Z,1.7
2019-01-29T13:15:14.286Z,1.7
2019-01-29T13:16:14.180Z,1.7
2019-01-29T13:17:14.080Z,1.7
2019-01-29T13:18:13.987Z,1.8
2019-01-29T13:19:13.914Z,1.7
2019-01-29T13:20:13.822Z,1.7
2019-01-29T13:21:13.718Z,1.6
2019-01-29T13:22:13.619Z,1.6
2019-01-29T13:23:13.968Z,1.5
2019-01-29T13:24:13.872Z,1.5
2019-01-29T13:25:13.778Z,1.4
2019-01-29T13:26:13.670Z,1.5
2019-01-29T13:27:13.552Z,1.6
2019-01-29T13:28:13.451Z,1.5
2019-01-29T13:29:13.384Z,1.5
2019-01-29T13:30:13.286Z,1.5
2019-01-29T13:31:13.190Z,1.5
2019-01-29T13:32:13.082Z,1.5
2019-01-29T13:33:13.400Z,1.5
2019-01-29T13:34:13.274Z,1.5
2019-01-29T13:35:13.188Z,1.5
2019-01-29T13:36:13.080Z,1.5
2019-01-29T13:37:12.982Z,1.5
2019-01-29T13:38:12.875Z,1.5
2019-01-29T13:39:12.789Z,1.4
2019-01-29T13:40:12.692Z,1.4
2019-01-29T13:41:12.622Z,1.5
2019-01-29T13:42:12.503Z,1.4
2019-01-29T13:43:12.826Z,1.5
2019-01-29T13:44:12.706Z,1.4
2019-01-29T13:45:12.592Z,1.4
2019-01-29T13:47:12.235Z,1.6
2019-01-29T13:48:12.140Z,1.7
2019-01-29T13:53:11.414Z,1.9
2019-01-29T13:54:11.305Z,1.9
2019-01-29T13:55:11.214Z,1.9
2019-01-29T13:56:11.131Z,1.8
2019-01-29T13:57:11.028Z,1.8
2019-01-29T13:58:11.029Z,1.8
2019-01-29T13:59:10.943Z,1.8
2019-01-29T14:00:12.950Z,1.8
2019-01-29T14:01:12.881Z,1.7
2019-01-29T14:02:12.779Z,1.6
2019-01-29T14:03:13.114Z,1.6
2019-01-29T14:04:13.012Z,1.5
2019-01-29T14:05:12.907Z,1.5
2019-01-29T14:06:12.778Z,1.5
2019-01-29T14:07:12.709Z,1.6
2019-01-29T14:08:12.597Z,1.6
2019-01-29T14:09:12.489Z,1.6
2019-01-29T14:10:12.373Z,1.5
2019-01-29T14:11:12.270Z,1.5
2019-01-29T14:12:12.164Z,1.4
2019-01-29T14:13:12.530Z,1.4
2019-01-29T14:14:12.405Z,1.4
2019-01-29T14:15:12.276Z,1.4
2019-01-29T14:16:12.184Z,1.4
2019-01-29T14:17:12.078Z,1.5
2019-01-29T14:20:11.491Z,1.7
2019-01-29T14:21:11.394Z,1.8
2019-01-29T14:22:11.281Z,1.8
2019-01-29T14:23:11.618Z,1.8
2019-01-29T14:24:11.537Z,1.8
2019-01-29T14:25:11.497Z,1.8
2019-01-29T14:26:13.174Z,1.8
2019-01-29T14:27:13.068Z,1.7
2019-01-29T14:28:12.968Z,1.7
2019-01-29T14:29:12.887Z,1.7
2019-01-29T14:30:12.808Z,1.7
2019-01-29T14:31:12.739Z,1.7
2019-01-29T14:32:12.633Z,1.7
2019-01-29T14:33:12.987Z,1.6
2019-01-29T14:34:12.891Z,1.6
2019-01-29T14:35:12.841Z,1.5
2019-01-29T14:36:17.609Z,1.5
2019-01-29T14:37:17.501Z,1.4
2019-01-29T14:38:17.407Z,1.5
2019-01-29T14:39:17.315Z,1.4
2019-01-29T14:40:17.223Z,1.4
2019-01-29T14:41:17.107Z,1.4
2019-01-29T14:42:17.050Z,1.4
2019-01-29T14:43:17.551Z,1.4
2019-01-29T14:44:17.465Z,1.3
2019-01-29T14:45:17.366Z,1.3
2019-01-29T14:46:17.269Z,1.3
2019-01-29T14:47:19.357Z,1.2
2019-01-29T14:48:19.238Z,1.3
2019-01-29T14:49:19.231Z,1.2
2019-01-29T14:50:19.349Z,1.2
2019-01-29T14:51:19.231Z,1.2
2019-01-29T14:52:19.167Z,1.1
2019-01-29T14:53:19.650Z,1.1
2019-01-29T14:54:19.783Z,1.1
2019-01-29T14:55:20.852Z,1
2019-01-29T14:56:20.732Z,1
2019-01-29T14:57:20.689Z,1
2019-01-29T14:58:20.657Z,1
2019-01-29T14:59:20.535Z,1
2019-01-29T15:00:20.427Z,1
2019-01-29T15:01:20.367Z,1
2019-01-29T15:02:20.248Z,0.9
2019-01-29T15:03:20.585Z,0.9
2019-01-29T15:04:20.509Z,0.9
2019-01-29T15:05:20.515Z,0.9
2019-01-29T15:06:20.618Z,1
2019-01-29T15:07:20.583Z,1
2019-01-29T15:08:29.878Z,1
2019-01-29T15:09:29.787Z,1
2019-01-29T15:10:29.771Z,0.9
2019-01-29T15:11:29.867Z,0.9